createdAt,value
2018-05-10T00:01:33.789Z,78.20
2018-05-10T00:04:03.404Z,78.32
2018-05-10T00:06:32.989Z,77.84
2018-05-10T00:09:02.588Z,77.76
2018-05-10T00:11:31.933Z,78.54
2018-05-10T00:14:01.518Z,79.00
2018-05-10T00:16:31.167Z,78.85
2018-05-10T00:19:00.725Z,79.86
2018-05-10T00:21:30.388Z,79.72
2018-05-10T00:23:59.961Z,79.61
2018-05-10T00:26:29.539Z,79.92
2018-05-10T00:28:59.146Z,79.87
2018-05-10T00:31:28.725Z,80.14
2018-05-10T00:33:58.345Z,80.51
2018-05-10T00:36:27.921Z,80.35
2018-05-10T00:38:57.496Z,80.56
2018-05-10T00:41:27.107Z,80.29
2018-05-10T00:43:56.799Z,80.52
2018-05-10T00:46:26.457Z,80.77
2018-05-10T00:48:56.228Z,81.30
2018-05-10T00:51:25.831Z,80.08
2018-05-10T00:53:55.436Z,80.53
2018-05-10T00:56:25.058Z,80.22
2018-05-10T00:58:54.646Z,80.59
2018-05-10T01:01:24.279Z,81.54
2018-05-10T01:03:53.881Z,81.24
2018-05-10T01:06:23.359Z,81.64
2018-05-10T01:08:52.966Z,80.78
2018-05-10T01:11:22.593Z,81.71
2018-05-10T01:13:52.314Z,81.89
2018-05-10T01:16:21.896Z,81.50
2018-05-10T01:18:51.605Z,81.98
2018-05-10T01:21:21.221Z,81.82
2018-05-10T01:23:50.865Z,82.99
2018-05-10T01:26:20.431Z,83.01
2018-05-10T01:28:50.114Z,82.93
2018-05-10T01:31:19.936Z,83.04
2018-05-10T01:33:49.557Z,83.77
2018-05-10T01:36:18.867Z,84.05
2018-05-10T01:38:48.547Z,83.80
2018-05-10T01:41:18.173Z,83.27
2018-05-10T01:43:47.795Z,82.30
2018-05-10T01:46:17.395Z,82.88
2018-05-10T01:48:46.974Z,83.12
2018-05-10T01:51:16.606Z,83.22
2018-05-10T01:53:46.175Z,83.54
2018-05-10T01:56:15.739Z,82.45
2018-05-10T01:58:45.337Z,81.89
2018-05-10T02:01:14.959Z,81.70
2018-05-10T02:03:44.539Z,82.35
2018-05-10T02:06:14.142Z,82.53
2018-05-10T02:08:43.743Z,81.70
2018-05-10T02:11:13.372Z,82.03
2018-05-10T02:13:43.023Z,81.39
2018-05-10T02:16:12.389Z,81.44
2018-05-10T02:18:41.995Z,82.56
2018-05-10T02:21:11.590Z,82.50
2018-05-10T02:23:41.194Z,80.53
2018-05-10T02:26:10.799Z,81.21
2018-05-10T02:28:40.400Z,81.42
2018-05-10T02:31:09.975Z,82.03
2018-05-10T02:33:39.603Z,81.77
2018-05-10T02:36:09.228Z,81.90
2018-05-10T02:38:38.807Z,82.10
2018-05-10T02:41:08.616Z,82.62
2018-05-10T02:43:38.222Z,82.08
2018-05-10T02:46:07.853Z,82.24
2018-05-10T02:48:37.257Z,81.64
2018-05-10T02:51:06.888Z,82.57
2018-05-10T02:53:36.550Z,82.76
2018-05-10T02:56:06.134Z,83.05
2018-05-10T02:58:35.692Z,81.99
2018-05-10T03:01:05.100Z,82.10
2018-05-10T03:03:35.112Z,82.20
2018-05-10T03:06:04.726Z,82.58
2018-05-10T03:08:34.322Z,82.19
2018-05-10T03:11:03.981Z,83.30
2018-05-10T03:13:33.566Z,84.04
2018-05-10T03:16:06.161Z,83.57
2018-05-10T03:18:35.810Z,83.94
2018-05-10T03:21:05.441Z,84.13
2018-05-10T03:23:35.009Z,83.22
2018-05-10T03:26:04.613Z,83.12
2018-05-10T03:28:34.167Z,83.74
2018-05-10T03:31:03.827Z,84.17
2018-05-10T03:33:33.410Z,84.45
2018-05-10T03:36:02.993Z,84.22
2018-05-10T03:38:32.324Z,84.51
2018-05-10T03:41:02.055Z,83.44
2018-05-10T03:43:31.652Z,83.53
2018-05-10T03:46:01.303Z,83.61
2018-05-10T03:48:30.903Z,83.80
2018-05-10T03:51:00.473Z,83.76
2018-05-10T03:53:30.045Z,83.99
2018-05-10T03:55:59.635Z,84.12
2018-05-10T03:58:29.233Z,83.43
2018-05-10T04:00:58.840Z,84.25
2018-05-10T04:03:51.715Z,84.25
2018-05-10T04:06:32.123Z,83.29
2018-05-10T04:09:12.429Z,82.15
2018-05-10T04:11:41.848Z,82.80
2018-05-10T04:14:13.125Z,82.46
2018-05-10T04:16:42.916Z,81.73
2018-05-10T04:19:12.495Z,81.48
2018-05-10T04:21:42.077Z,78.78
2018-05-10T04:24:11.676Z,77.83
2018-05-10T04:26:41.285Z,76.77
2018-05-10T04:29:10.903Z,77.01
2018-05-10T04:31:40.607Z,77.27
2018-05-10T04:34:10.191Z,78.89
2018-05-10T04:36:39.879Z,79.01
2018-05-10T04:39:09.644Z,79.98
2018-05-10T04:41:39.291Z,78.63
2018-05-10T04:44:08.901Z,78.05
2018-05-10T04:46:38.364Z,77.88
2018-05-10T04:49:08.084Z,77.97
2018-05-10T04:51:37.761Z,76.91
2018-05-10T04:54:07.343Z,76.18
2018-05-10T04:56:36.968Z,76.23
2018-05-10T04:59:06.411Z,75.92
2018-05-10T05:01:36.109Z,75.65
2018-05-10T05:04:06.599Z,75.35
2018-05-10T05:06:36.203Z,74.88
2018-05-10T05:09:05.348Z,74.75
2018-05-10T05:11:35.088Z,74.54
2018-05-10T05:14:04.666Z,73.24
2018-05-10T05:16:34.298Z,72.94
2018-05-10T05:19:03.871Z,72.31
2018-05-10T05:21:33.513Z,71.28
2018-05-10T05:24:03.313Z,70.95
2018-05-10T05:26:33.001Z,70.74
2018-05-10T05:29:02.649Z,70.61
2018-05-10T05:31:32.258Z,69.37
2018-05-10T05:34:01.860Z,67.88
2018-05-10T05:36:31.737Z,67.41
2018-05-10T05:39:01.434Z,68.15
2018-05-10T05:41:30.797Z,67.12
2018-05-10T05:44:00.389Z,66.23
2018-05-10T05:46:30.184Z,67.11
2018-05-10T05:48:59.867Z,65.97
2018-05-10T05:51:29.643Z,66.04
2018-05-10T05:53:59.269Z,65.61
2018-05-10T05:56:28.904Z,66.15
2018-05-10T05:58:58.510Z,66.97
2018-05-10T06:01:28.146Z,66.40
2018-05-10T06:03:57.801Z,66.38
2018-05-10T06:06:27.417Z,66.65
2018-05-10T06:08:56.838Z,66.16
2018-05-10T06:11:26.442Z,66.47
2018-05-10T06:13:56.049Z,65.59
2018-05-10T06:16:25.647Z,66.17
2018-05-10T06:18:55.255Z,65.07
2018-05-10T06:21:24.858Z,64.65
2018-05-10T06:23:54.485Z,64.53
2018-05-10T06:26:24.094Z,63.78
2018-05-10T06:28:53.708Z,63.54
2018-05-10T06:31:23.346Z,63.20
2018-05-10T06:33:52.949Z,63.11
2018-05-10T06:36:22.752Z,63.46
2018-05-10T06:38:52.346Z,62.18
2018-05-10T06:41:22.009Z,61.52
2018-05-10T06:43:51.786Z,60.93
2018-05-10T06:46:21.458Z,60.97
2018-05-10T06:48:51.051Z,60.96
2018-05-10T06:51:20.656Z,60.89
2018-05-10T06:53:53.286Z,61.04
2018-05-10T06:56:22.861Z,60.94
2018-05-10T06:58:52.448Z,61.60
2018-05-10T07:01:22.024Z,61.17
2018-05-10T07:03:51.594Z,61.14
2018-05-10T07:06:21.208Z,61.06
2018-05-10T07:08:50.792Z,62.23
2018-05-10T07:11:20.395Z,61.40
2018-05-10T07:13:49.986Z,63.30
2018-05-10T07:16:19.688Z,61.73
2018-05-10T07:18:49.274Z,61.33
2018-05-10T07:21:18.900Z,61.77
2018-05-10T07:23:48.550Z,62.49
2018-05-10T07:26:18.336Z,61.96
2018-05-10T07:28:47.937Z,62.96
2018-05-10T07:31:17.565Z,62.32
2018-05-10T07:33:47.167Z,61.53
2018-05-10T07:36:16.914Z,61.21
2018-05-10T07:38:46.504Z,62.30
2018-05-10T07:41:16.074Z,61.58
2018-05-10T07:43:45.684Z,61.64
2018-05-10T07:46:15.313Z,61.91
2018-05-10T07:48:44.895Z,61.62
2018-05-10T07:51:14.472Z,61.68
2018-05-10T07:53:44.145Z,61.81
2018-05-10T07:56:13.865Z,62.14
2018-05-10T07:58:43.453Z,62.68
2018-05-10T08:01:13.049Z,62.51
2018-05-10T08:03:42.664Z,62.32
2018-05-10T08:06:12.261Z,62.00
2018-05-10T08:08:41.838Z,60.92
2018-05-10T08:11:11.416Z,61.10
2018-05-10T08:13:40.981Z,61.48
2018-05-10T08:16:10.558Z,61.18
2018-05-10T08:18:40.219Z,60.60
2018-05-10T08:21:09.815Z,60.13
2018-05-10T08:23:49.162Z,58.99
2018-05-10T08:26:18.748Z,58.65
2018-05-10T08:28:48.092Z,57.46
2018-05-10T08:31:17.432Z,57.74
2018-05-10T08:33:46.991Z,57.57
2018-05-10T08:36:16.595Z,57.32
2018-05-10T08:38:46.193Z,57.86
2018-05-10T08:41:15.790Z,58.11
2018-05-10T08:43:45.369Z,57.53
2018-05-10T08:46:14.953Z,56.83
2018-05-10T08:48:44.562Z,56.75
2018-05-10T08:51:14.196Z,56.22
2018-05-10T08:53:43.830Z,54.98
2018-05-10T08:56:13.397Z,55.19
2018-05-10T08:58:43.027Z,55.38
2018-05-10T09:01:12.628Z,55.30
2018-05-10T09:03:43.975Z,55.20
2018-05-10T09:06:13.719Z,55.26
2018-05-10T09:08:43.681Z,54.79
2018-05-10T09:11:13.247Z,54.54
2018-05-10T09:13:42.838Z,53.82
2018-05-10T09:16:12.591Z,53.65
2018-05-10T09:18:42.167Z,53.23
2018-05-10T09:21:11.738Z,53.34
2018-05-10T09:23:41.319Z,53.34
2018-05-10T09:26:11.091Z,52.85
2018-05-10T09:28:40.844Z,52.97
2018-05-10T09:31:10.437Z,52.59
2018-05-10T09:33:40.019Z,52.49
2018-05-10T09:36:09.286Z,52.00
2018-05-10T09:38:38.889Z,51.67
2018-05-10T09:41:08.527Z,51.25
2018-05-10T09:43:38.110Z,50.97
2018-05-10T09:46:07.830Z,50.54
2018-05-10T09:48:37.550Z,50.37
2018-05-10T09:51:07.117Z,50.58
2018-05-10T09:53:36.686Z,49.94
2018-05-10T09:56:06.270Z,49.73
2018-05-10T09:58:35.852Z,49.27
2018-05-10T10:01:05.421Z,50.52
2018-05-10T10:03:34.772Z,49.96
2018-05-10T10:06:04.390Z,49.69
2018-05-10T10:08:33.962Z,49.36
2018-05-10T10:11:03.534Z,48.62
2018-05-10T10:13:33.123Z,48.54
2018-05-10T10:16:02.685Z,48.89
2018-05-10T10:18:32.272Z,48.13
2018-05-10T10:21:01.841Z,48.28
2018-05-10T10:23:31.413Z,48.42
2018-05-10T10:26:00.987Z,48.06
2018-05-10T10:28:30.347Z,47.43
2018-05-10T10:30:59.992Z,46.89
2018-05-10T10:33:29.584Z,47.49
2018-05-10T10:35:58.946Z,46.79
2018-05-10T10:38:28.516Z,45.90
2018-05-10T10:40:58.103Z,45.62
2018-05-10T10:43:27.709Z,46.29
2018-05-10T10:45:57.332Z,46.22
2018-05-10T10:48:26.894Z,46.30
2018-05-10T10:50:56.331Z,46.21
2018-05-10T10:53:28.807Z,45.86
2018-05-10T10:55:58.407Z,46.46
2018-05-10T10:58:28.067Z,46.27
2018-05-10T11:00:57.745Z,46.34
2018-05-10T11:03:27.392Z,47.24
2018-05-10T11:05:56.976Z,48.21
2018-05-10T11:08:26.545Z,48.16
2018-05-10T11:10:56.127Z,48.82
2018-05-10T11:13:25.747Z,49.10
2018-05-10T11:15:55.342Z,49.18
2018-05-10T11:18:25.050Z,48.95
2018-05-10T11:20:54.729Z,48.66
2018-05-10T11:23:24.504Z,48.46
2018-05-10T11:25:54.082Z,48.24
2018-05-10T11:28:23.684Z,48.36
2018-05-10T11:30:53.252Z,47.65
2018-05-10T11:33:22.988Z,47.92
2018-05-10T11:35:52.559Z,48.30
2018-05-10T11:38:22.139Z,47.54
2018-05-10T11:40:51.927Z,47.44
2018-05-10T11:43:21.507Z,46.27
2018-05-10T11:45:51.099Z,45.94
2018-05-10T11:48:20.675Z,47.52
2018-05-10T11:50:50.264Z,47.14
2018-05-10T11:53:19.814Z,46.98
2018-05-10T11:55:49.394Z,46.05
2018-05-10T11:58:18.954Z,44.47
2018-05-10T12:00:48.582Z,43.59
2018-05-10T12:03:18.190Z,42.87
2018-05-10T12:05:47.785Z,42.38
2018-05-10T12:08:17.383Z,43.54
2018-05-10T12:10:47.049Z,44.48
2018-05-10T12:13:16.649Z,45.68
2018-05-10T12:15:46.308Z,46.58
2018-05-10T12:18:15.962Z,46.85
2018-05-10T12:20:45.573Z,46.34
2018-05-10T12:23:15.183Z,45.72
2018-05-10T12:25:44.793Z,46.21
2018-05-10T12:28:14.422Z,46.33
2018-05-10T12:30:44.194Z,45.04
2018-05-10T12:33:13.816Z,45.51
2018-05-10T12:35:43.542Z,45.80
2018-05-10T12:38:13.233Z,45.44
2018-05-10T12:40:42.795Z,45.07
2018-05-10T12:43:12.397Z,44.65
2018-05-10T12:45:42.128Z,45.09
2018-05-10T12:48:11.725Z,45.52
2018-05-10T12:50:41.348Z,46.38
2018-05-10T12:53:10.979Z,46.51
2018-05-10T12:55:40.582Z,46.60
2018-05-10T12:58:11.118Z,47.46
2018-05-10T13:00:40.755Z,47.64
2018-05-10T13:03:10.593Z,48.92
2018-05-10T13:05:40.166Z,48.36
2018-05-10T13:08:09.519Z,47.95
2018-05-10T13:10:39.072Z,46.66
2018-05-10T13:13:08.668Z,46.09
2018-05-10T13:15:38.242Z,45.73
2018-05-10T13:18:07.817Z,45.52
2018-05-10T13:20:37.489Z,46.39
2018-05-10T13:23:07.246Z,46.06
2018-05-10T13:25:36.823Z,45.65
2018-05-10T13:28:06.405Z,45.92
2018-05-10T13:30:36.044Z,45.89
2018-05-10T13:33:05.422Z,46.42
2018-05-10T13:35:35.008Z,47.50
2018-05-10T13:38:04.620Z,46.95
2018-05-10T13:40:34.203Z,46.05
2018-05-10T13:43:03.764Z,46.21
2018-05-10T13:45:33.513Z,45.79
2018-05-10T13:48:03.195Z,44.99
2018-05-10T13:50:32.875Z,44.11
2018-05-10T13:53:02.477Z,43.77
2018-05-10T13:55:32.289Z,44.12
2018-05-10T13:58:01.857Z,43.85
2018-05-10T14:00:31.447Z,43.24
2018-05-10T14:03:01.028Z,43.26
2018-05-10T14:05:30.596Z,43.70
2018-05-10T14:08:00.185Z,43.17
2018-05-10T14:10:29.755Z,42.22
2018-05-10T14:12:59.350Z,41.32
2018-05-10T14:15:28.944Z,41.74
2018-05-10T14:17:58.550Z,41.47
2018-05-10T14:20:28.152Z,42.03
2018-05-10T14:22:57.799Z,42.05
2018-05-10T14:25:27.769Z,41.78
2018-05-10T14:27:57.527Z,41.42
2018-05-10T14:30:27.110Z,41.44
2018-05-10T14:32:56.716Z,41.73
2018-05-10T14:35:26.360Z,42.80
2018-05-10T14:37:55.999Z,42.79
2018-05-10T14:40:25.645Z,42.98
2018-05-10T14:42:56.171Z,43.84
2018-05-10T14:45:25.786Z,43.56
2018-05-10T14:47:55.140Z,44.48
2018-05-10T14:50:24.704Z,44.89
2018-05-10T14:52:54.367Z,45.13
2018-05-10T14:55:23.926Z,45.61
2018-05-10T14:57:53.520Z,46.28
2018-05-10T15:00:23.117Z,46.62
2018-05-10T15:02:52.673Z,46.83
2018-05-10T15:05:22.251Z,47.40
2018-05-10T15:07:51.835Z,46.53
2018-05-10T15:10:21.416Z,46.90
2018-05-10T15:12:51.046Z,47.29
2018-05-10T15:15:20.719Z,47.36
2018-05-10T15:17:50.311Z,47.43
2018-05-10T15:20:19.869Z,47.43
2018-05-10T15:22:49.448Z,47.39
2018-05-10T16:26:03.283Z,50.23
2018-05-10T16:28:32.867Z,50.24
2018-05-10T16:31:02.425Z,50.80
2018-05-10T16:33:32.085Z,50.47
2018-05-10T16:36:01.920Z,52.14
2018-05-10T16:38:31.499Z,52.46
2018-05-10T16:41:00.848Z,52.68
2018-05-10T16:43:30.233Z,53.42
2018-05-10T16:45:59.804Z,53.60
2018-05-10T16:48:29.519Z,53.07
2018-05-10T16:50:59.097Z,53.47
2018-05-10T16:53:28.774Z,54.08
2018-05-10T16:55:58.580Z,53.67
2018-05-10T16:58:28.148Z,54.02
2018-05-10T17:00:57.795Z,54.24
2018-05-10T17:03:27.367Z,54.04
2018-05-10T17:05:57.029Z,53.62
2018-05-10T17:08:26.603Z,53.39
2018-05-10T17:10:56.168Z,53.25
2018-05-10T17:13:25.738Z,52.57
2018-05-10T17:15:55.351Z,52.39
2018-05-10T17:18:25.055Z,51.37
2018-05-10T17:20:54.795Z,50.76
2018-05-10T17:23:24.376Z,50.31
2018-05-10T17:25:53.937Z,49.63
2018-05-10T17:28:23.539Z,49.62
2018-05-10T17:30:53.142Z,49.67
2018-05-10T17:33:22.915Z,48.67
2018-05-10T17:35:52.499Z,48.95
2018-05-10T17:38:22.063Z,49.55
2018-05-10T17:40:51.651Z,50.08
2018-05-10T17:43:21.234Z,50.75
2018-05-10T17:45:50.827Z,51.21
2018-05-10T17:48:20.403Z,51.48
2018-05-10T17:50:49.843Z,51.34
2018-05-10T17:53:19.416Z,50.77
2018-05-10T17:55:48.988Z,49.57
2018-05-10T17:58:18.589Z,48.95
2018-05-10T18:00:48.179Z,49.07
2018-05-10T18:03:17.923Z,50.41
2018-05-10T18:05:47.496Z,51.82
2018-05-10T18:08:17.064Z,53.00
2018-05-10T18:10:46.668Z,54.37
2018-05-10T18:13:16.228Z,54.27
2018-05-10T18:15:45.849Z,53.87
2018-05-10T18:18:15.633Z,53.89
2018-05-10T18:20:45.217Z,53.72
2018-05-10T18:23:14.816Z,54.24
2018-05-10T18:25:44.533Z,54.81
2018-05-10T18:28:14.161Z,55.53
2018-05-10T18:30:43.759Z,54.61
2018-05-10T18:33:13.054Z,54.35
2018-05-10T18:35:42.697Z,54.15
2018-05-10T18:38:12.294Z,54.01
2018-05-10T18:40:41.933Z,54.27
2018-05-10T18:43:11.343Z,53.93
2018-05-10T18:45:40.910Z,53.97
2018-05-10T18:48:10.464Z,53.84
2018-05-10T18:50:39.760Z,53.05
2018-05-10T18:53:09.046Z,52.57
2018-05-10T18:55:38.346Z,52.99
2018-05-10T18:58:07.925Z,52.75
2018-05-10T19:00:37.231Z,52.64
2018-05-10T19:03:06.541Z,52.74
2018-05-10T19:05:35.825Z,55.99
2018-05-10T19:08:08.119Z,58.06
2018-05-10T19:10:37.400Z,59.62
2018-05-10T19:13:06.807Z,62.07
2018-05-10T19:15:36.247Z,62.72
2018-05-10T19:18:05.511Z,65.14
2018-05-10T19:20:34.797Z,66.68
2018-05-10T19:23:04.092Z,67.49
2018-05-10T19:25:33.653Z,68.14
2018-05-10T19:28:02.750Z,68.11
2018-05-10T19:30:32.180Z,67.10
2018-05-10T19:33:01.750Z,65.84
2018-05-10T19:35:31.060Z,64.58
2018-05-10T19:38:00.358Z,63.77
2018-05-10T19:40:29.727Z,62.92
2018-05-10T19:42:59.433Z,63.10
2018-05-10T19:45:29.025Z,64.27
2018-05-10T19:47:58.620Z,63.91
2018-05-10T19:50:28.001Z,64.29
2018-05-10T19:52:57.358Z,63.65
2018-05-10T19:55:26.941Z,63.01
2018-05-10T19:57:56.258Z,62.89
2018-05-10T20:00:25.602Z,62.43
2018-05-10T20:02:54.939Z,62.27
2018-05-10T20:05:24.551Z,62.32
2018-05-10T20:07:54.146Z,61.50
2018-05-10T20:10:23.708Z,60.55
2018-05-10T20:12:53.090Z,60.62
2018-05-10T20:15:22.389Z,60.86
2018-05-10T20:17:51.727Z,60.54
2018-05-10T20:20:21.365Z,60.38
2018-05-10T20:22:50.642Z,60.37
2018-05-10T20:26:21.918Z,60.77
2018-05-10T20:28:51.207Z,60.41
2018-05-10T20:31:20.789Z,60.22
2018-05-10T20:33:50.098Z,60.76
2018-05-10T20:36:19.159Z,60.29
2018-05-10T20:38:48.468Z,61.01
2018-05-10T20:41:17.907Z,61.39
2018-05-10T20:43:47.380Z,62.28
2018-05-10T20:46:16.735Z,63.04
2018-05-10T20:48:46.268Z,63.83
2018-05-10T20:51:15.560Z,64.11
2018-05-10T20:53:44.877Z,64.13
2018-05-10T20:56:14.200Z,64.89
2018-05-10T20:58:43.537Z,65.75
2018-05-10T21:01:13.166Z,65.77
2018-05-10T21:03:42.603Z,65.75
2018-05-10T21:06:12.053Z,66.41
2018-05-10T21:08:41.350Z,66.81
2018-05-10T21:11:10.928Z,67.13
2018-05-10T21:13:40.303Z,67.44
2018-05-10T21:16:09.659Z,67.40
2018-05-10T21:18:38.643Z,67.02
2018-05-10T21:21:08.022Z,67.48
2018-05-10T21:23:37.590Z,67.75
2018-05-10T21:26:06.893Z,67.75
2018-05-10T21:28:36.407Z,67.74
2018-05-10T21:31:05.692Z,67.35
2018-05-10T21:33:35.274Z,67.54
2018-05-10T21:36:04.856Z,68.41
2018-05-10T21:38:34.147Z,67.79
2018-05-10T21:41:03.453Z,67.94
2018-05-10T21:43:32.963Z,68.92
2018-05-10T21:46:02.264Z,69.97
2018-05-10T21:48:31.557Z,69.48
2018-05-10T21:51:00.856Z,70.07
2018-05-10T21:53:30.167Z,71.22
2018-05-10T21:55:59.442Z,70.65
2018-05-10T21:58:29.011Z,71.27
2018-05-10T22:00:58.568Z,71.18
2018-05-10T22:03:27.866Z,71.71
2018-05-10T22:05:57.436Z,71.45
2018-05-10T22:08:27.138Z,71.47
2018-05-10T22:10:56.467Z,71.77
2018-05-10T22:13:25.751Z,71.44
2018-05-10T22:15:55.311Z,70.90
2018-05-10T22:18:24.630Z,71.71
2018-05-10T22:20:54.450Z,71.46
2018-05-10T22:23:23.745Z,71.32
2018-05-10T22:25:53.315Z,71.40
2018-05-10T22:28:22.866Z,71.15
2018-05-10T22:30:52.183Z,70.03
2018-05-10T22:33:21.833Z,70.54
2018-05-10T22:35:51.106Z,70.01
2018-05-10T22:38:20.867Z,70.38
2018-05-10T22:40:50.663Z,70.39
2018-05-10T22:43:19.971Z,70.92
2018-05-10T22:45:49.251Z,70.78
2018-05-10T22:48:19.082Z,70.14
2018-05-10T22:50:48.371Z,70.19
2018-05-10T22:53:17.664Z,70.06
2018-05-10T22:55:47.241Z,69.72
2018-05-10T22:58:16.614Z,69.28
2018-05-10T23:00:46.000Z,69.34
2018-05-10T23:03:15.597Z,69.92
2018-05-10T23:05:45.139Z,69.87
2018-05-10T23:08:14.711Z,68.77
2018-05-10T23:10:44.290Z,70.40
2018-05-10T23:13:13.858Z,69.59
2018-05-10T23:15:43.410Z,69.81
2018-05-10T23:18:13.038Z,69.74
2018-05-10T23:20:42.608Z,69.20
2018-05-10T23:23:12.698Z,68.65
2018-05-10T23:25:42.268Z,68.93
2018-05-10T23:28:11.839Z,69.32
2018-05-10T23:30:41.570Z,69.69
2018-05-10T23:33:11.163Z,69.86
2018-05-10T23:35:40.824Z,70.73
2018-05-10T23:38:10.520Z,71.98
2018-05-10T23:40:40.095Z,71.13
2018-05-10T23:43:09.657Z,71.25
2018-05-10T23:45:39.271Z,70.96
2018-05-10T23:48:08.844Z,71.16
2018-05-10T23:50:38.457Z,71.45
2018-05-10T23:53:08.084Z,70.82
2018-05-10T23:55:37.633Z,70.52
2018-05-10T23:58:07.212Z,71.39
